sensor_id;sensor_type;location;lat;lon;timestamp;P1;durP1;ratioP1;P2;durP2;ratioP2
69719;SDS011;56988;56.122;13.798;2024-03-08T00:00:32;4.65;;;3.20;;
69719;SDS011;56988;56.122;13.798;2024-03-08T00:01:33;6.75;;;3.50;;
69719;SDS011;56988;56.122;13.798;2024-03-08T00:02:33;7.97;;;3.80;;
69719;SDS011;56988;56.122;13.798;2024-03-08T00:03:33;5.65;;;2.83;;
69719;SDS011;56988;56.122;13.798;2024-03-08T00:04:34;6.18;;;3.45;;
69719;SDS011;56988;56.122;13.798;2024-03-08T00:05:34;6.80;;;3.10;;
69719;SDS011;56988;56.122;13.798;2024-03-08T00:06:35;7.15;;;3.20;;
69719;SDS011;56988;56.122;13.798;2024-03-08T00:07:35;6.40;;;3.22;;
69719;SDS011;56988;56.122;13.798;2024-03-08T00:08:36;6.47;;;3.15;;
69719;SDS011;56988;56.122;13.798;2024-03-08T00:09:36;9.52;;;3.15;;
69719;SDS011;56988;56.122;13.798;2024-03-08T00:10:36;5.28;;;3.05;;
69719;SDS011;56988;56.122;13.798;2024-03-08T00:11:38;6.03;;;2.88;;
69719;SDS011;56988;56.122;13.798;2024-03-08T00:12:39;4.68;;;3.10;;
69719;SDS011;56988;56.122;13.798;2024-03-08T00:13:42;8.07;;;3.42;;
69719;SDS011;56988;56.122;13.798;2024-03-08T00:14:42;6.28;;;3.45;;
69719;SDS011;56988;56.122;13.798;2024-03-08T00:15:42;5.95;;;3.15;;
69719;SDS011;56988;56.122;13.798;2024-03-08T00:16:42;6.15;;;3.33;;
69719;SDS011;56988;56.122;13.798;2024-03-08T00:17:44;4.93;;;3.05;;
69719;SDS011;56988;56.122;13.798;2024-03-08T00:18:44;7.15;;;3.53;;
69719;SDS011;56988;56.122;13.798;2024-03-08T00:19:44;6.28;;;3.50;;
69719;SDS011;56988;56.122;13.798;2024-03-08T00:20:45;6.57;;;3.25;;
69719;SDS011;56988;56.122;13.798;2024-03-08T00:21:45;6.50;;;3.55;;
69719;SDS011;56988;56.122;13.798;2024-03-08T00:22:45;6.15;;;2.90;;
69719;SDS011;56988;56.122;13.798;2024-03-08T00:23:46;5.88;;;3.30;;
69719;SDS011;56988;56.122;13.798;2024-03-08T00:24:47;8.27;;;3.50;;
69719;SDS011;56988;56.122;13.798;2024-03-08T00:25:47;4.63;;;2.87;;
69719;SDS011;56988;56.122;13.798;2024-03-08T00:26:47;5.57;;;3.43;;
69719;SDS011;56988;56.122;13.798;2024-03-08T00:27:47;7.10;;;3.35;;
69719;SDS011;56988;56.122;13.798;2024-03-08T00:28:49;9.02;;;3.80;;
69719;SDS011;56988;56.122;13.798;2024-03-08T00:29:50;6.22;;;3.53;;
69719;SDS011;56988;56.122;13.798;2024-03-08T00:30:50;8.43;;;4.28;;
69719;SDS011;56988;56.122;13.798;2024-03-08T00:31:50;10.73;;;4.03;;
69719;SDS011;56988;56.122;13.798;2024-03-08T00:32:50;8.77;;;3.70;;
69719;SDS011;56988;56.122;13.798;2024-03-08T00:33:51;4.72;;;2.90;;
69719;SDS011;56988;56.122;13.798;2024-03-08T00:34:55;5.43;;;3.50;;
69719;SDS011;56988;56.122;13.798;2024-03-08T00:35:55;5.18;;;3.30;;
69719;SDS011;56988;56.122;13.798;2024-03-08T00:36:55;8.43;;;3.55;;
69719;SDS011;56988;56.122;13.798;2024-03-08T00:37:55;6.95;;;3.30;;
69719;SDS011;56988;56.122;13.798;2024-03-08T00:39:56;5.95;;;3.55;;
69719;SDS011;56988;56.122;13.798;2024-03-08T00:40:57;6.90;;;3.47;;
69719;SDS011;56988;56.122;13.798;2024-03-08T00:41:57;4.65;;;3.10;;
69719;SDS011;56988;56.122;13.798;2024-03-08T00:42:57;8.75;;;3.95;;
69719;SDS011;56988;56.122;13.798;2024-03-08T00:43:58;7.85;;;3.95;;
69719;SDS011;56988;56.122;13.798;2024-03-08T00:44:58;7.25;;;3.60;;
69719;SDS011;56988;56.122;13.798;2024-03-08T00:45:58;7.00;;;3.30;;
69719;SDS011;56988;56.122;13.798;2024-03-08T00:46:59;8.88;;;4.00;;
69719;SDS011;56988;56.122;13.798;2024-03-08T00:47:59;5.20;;;3.10;;
69719;SDS011;56988;56.122;13.798;2024-03-08T00:49:00;9.63;;;3.70;;
69719;SDS011;56988;56.122;13.798;2024-03-08T00:50:01;5.85;;;3.50;;
69719;SDS011;56988;56.122;13.798;2024-03-08T00:51:04;8.48;;;3.40;;
69719;SDS011;56988;56.122;13.798;2024-03-08T00:52:04;6.50;;;3.42;;
69719;SDS011;56988;56.122;13.798;2024-03-08T00:53:07;7.30;;;3.50;;
69719;SDS011;56988;56.122;13.798;2024-03-08T00:54:07;7.35;;;3.80;;
69719;SDS011;56988;56.122;13.798;2024-03-08T00:55:07;5.30;;;3.40;;
69719;SDS011;56988;56.122;13.798;2024-03-08T00:56:10;7.50;;;3.47;;
69719;SDS011;56988;56.122;13.798;2024-03-08T00:57:10;8.15;;;3.40;;
69719;SDS011;56988;56.122;13.798;2024-03-08T00:58:11;5.15;;;3.17;;
69719;SDS011;56988;56.122;13.798;2024-03-08T00:59:11;10.23;;;4.00;;
69719;SDS011;56988;56.122;13.798;2024-03-08T01:00:14;7.25;;;3.65;;
69719;SDS011;56988;56.122;13.798;2024-03-08T01:01:14;7.72;;;3.25;;
69719;SDS011;56988;56.122;13.798;2024-03-08T01:02:17;5.65;;;3.50;;
69719;SDS011;56988;56.122;13.798;2024-03-08T01:03:19;6.82;;;3.40;;
69719;SDS011;56988;56.122;13.798;2024-03-08T01:04:19;9.40;;;3.80;;
69719;SDS011;56988;56.122;13.798;2024-03-08T01:06:20;7.13;;;3.50;;
69719;SDS011;56988;56.122;13.798;2024-03-08T01:07:21;6.68;;;3.85;;
69719;SDS011;56988;56.122;13.798;2024-03-08T01:08:21;8.27;;;4.00;;
69719;SDS011;56988;56.122;13.798;2024-03-08T01:09:24;7.57;;;3.92;;
69719;SDS011;56988;56.122;13.798;2024-03-08T01:10:24;7.82;;;3.78;;
69719;SDS011;56988;56.122;13.798;2024-03-08T01:11:25;8.65;;;4.07;;
69719;SDS011;56988;56.122;13.798;2024-03-08T01:12:25;8.00;;;4.43;;
69719;SDS011;56988;56.122;13.798;2024-03-08T01:13:25;9.50;;;4.20;;
69719;SDS011;56988;56.122;13.798;2024-03-08T01:14:26;9.48;;;4.03;;
69719;SDS011;56988;56.122;13.798;2024-03-08T01:15:26;7.25;;;3.65;;
69719;SDS011;56988;56.122;13.798;2024-03-08T01:16:26;7.57;;;4.00;;
69719;SDS011;56988;56.122;13.798;2024-03-08T01:17:26;5.68;;;3.50;;
69719;SDS011;56988;56.122;13.798;2024-03-08T01:18:27;10.07;;;4.00;;
69719;SDS011;56988;56.122;13.798;2024-03-08T01:19:27;10.32;;;5.03;;
69719;SDS011;56988;56.122;13.798;2024-03-08T01:20:27;6.50;;;3.80;;
69719;SDS011;56988;56.122;13.798;2024-03-08T01:21:27;11.20;;;4.60;;
69719;SDS011;56988;56.122;13.798;2024-03-08T01:22:27;7.78;;;4.45;;
69719;SDS011;56988;56.122;13.798;2024-03-08T01:23:29;7.18;;;4.35;;
69719;SDS011;56988;56.122;13.798;2024-03-08T01:24:30;7.07;;;4.40;;
69719;SDS011;56988;56.122;13.798;2024-03-08T01:25:30;8.77;;;4.38;;
69719;SDS011;56988;56.122;13.798;2024-03-08T01:26:32;12.20;;;4.53;;
69719;SDS011;56988;56.122;13.798;2024-03-08T01:27:34;7.95;;;4.15;;
69719;SDS011;56988;56.122;13.798;2024-03-08T01:28:35;10.18;;;4.80;;
69719;SDS011;56988;56.122;13.798;2024-03-08T01:29:35;9.25;;;4.57;;
69719;SDS011;56988;56.122;13.798;2024-03-08T01:30:36;12.60;;;5.05;;
69719;SDS011;56988;56.122;13.798;2024-03-08T01:31:37;7.40;;;4.22;;
69719;SDS011;56988;56.122;13.798;2024-03-08T01:32:37;8.07;;;3.95;;
69719;SDS011;56988;56.122;13.798;2024-03-08T01:33:38;7.90;;;3.97;;
69719;SDS011;56988;56.122;13.798;2024-03-08T01:34:38;8.85;;;4.53;;
69719;SDS011;56988;56.122;13.798;2024-03-08T01:36:41;7.63;;;3.95;;
69719;SDS011;56988;56.122;13.798;2024-03-08T01:37:41;6.78;;;4.25;;
69719;SDS011;56988;56.122;13.798;2024-03-08T01:38:42;6.95;;;4.18;;
69719;SDS011;56988;56.122;13.798;2024-03-08T01:39:42;6.88;;;4.13;;
69719;SDS011;56988;56.122;13.798;2024-03-08T01:40:42;7.22;;;3.83;;
69719;SDS011;56988;56.122;13.798;2024-03-08T01:41:43;10.48;;;4.57;;
69719;SDS011;56988;56.122;13.798;2024-03-08T01:42:43;7.45;;;4.00;;
69719;SDS011;56988;56.122;13.798;2024-03-08T01:43:44;7.35;;;4.60;;
69719;SDS011;56988;56.122;13.798;2024-03-08T01:44:45;8.05;;;4.55;;
69719;SDS011;56988;56.122;13.798;2024-03-08T01:45:45;10.07;;;5.03;;
69719;SDS011;56988;56.122;13.798;2024-03-08T01:46:46;8.50;;;4.50;;
69719;SDS011;56988;56.122;13.798;2024-03-08T01:47:46;8.43;;;4.80;;
69719;SDS011;56988;56.122;13.798;2024-03-08T01:48:48;8.95;;;5.15;;
69719;SDS011;56988;56.122;13.798;2024-03-08T01:49:49;13.90;;;5.03;;
69719;SDS011;56988;56.122;13.798;2024-03-08T01:50:49;8.85;;;4.28;;
69719;SDS011;56988;56.122;13.798;2024-03-08T01:51:50;8.32;;;4.15;;
69719;SDS011;56988;56.122;13.798;2024-03-08T01:52:50;6.38;;;3.83;;
69719;SDS011;56988;56.122;13.798;2024-03-08T01:54:50;7.53;;;4.28;;
69719;SDS011;56988;56.122;13.798;2024-03-08T01:55:52;10.63;;;4.85;;
69719;SDS011;56988;56.122;13.798;2024-03-08T01:56:53;9.55;;;4.18;;
69719;SDS011;56988;56.122;13.798;2024-03-08T01:57:53;6.45;;;3.90;;
69719;SDS011;56988;56.122;13.798;2024-03-08T01:58:53;9.10;;;4.35;;
69719;SDS011;56988;56.122;13.798;2024-03-08T01:59:54;8.63;;;4.13;;
69719;SDS011;56988;56.122;13.798;2024-03-08T02:00:58;7.50;;;4.18;;
69719;SDS011;56988;56.122;13.798;2024-03-08T02:02:00;7.40;;;4.38;;
69719;SDS011;56988;56.122;13.798;2024-03-08T02:03:01;10.48;;;4.15;;
69719;SDS011;56988;56.122;13.798;2024-03-08T02:04:01;7.10;;;4.28;;
69719;SDS011;56988;56.122;13.798;2024-03-08T02:05:02;8.00;;;4.70;;
69719;SDS011;56988;56.122;13.798;2024-03-08T02:06:03;10.00;;;5.18;;
69719;SDS011;56988;56.122;13.798;2024-03-08T02:07:05;8.82;;;3.97;;
69719;SDS011;56988;56.122;13.798;2024-03-08T02:08:05;7.60;;;4.35;;
69719;SDS011;56988;56.122;13.798;2024-03-08T02:09:07;9.13;;;4.30;;
69719;SDS011;56988;56.122;13.798;2024-03-08T02:10:07;9.05;;;4.63;;
69719;SDS011;56988;56.122;13.798;2024-03-08T02:11:07;8.18;;;4.25;;
69719;SDS011;56988;56.122;13.798;2024-03-08T02:12:08;11.18;;;4.55;;
69719;SDS011;56988;56.122;13.798;2024-03-08T02:13:08;9.35;;;4.00;;
69719;SDS011;56988;56.122;13.798;2024-03-08T02:14:09;7.50;;;4.40;;
69719;SDS011;56988;56.122;13.798;2024-03-08T02:15:11;10.18;;;4.10;;
69719;SDS011;56988;56.122;13.798;2024-03-08T02:16:11;6.80;;;4.05;;
69719;SDS011;56988;56.122;13.798;2024-03-08T02:17:11;7.75;;;4.18;;
69719;SDS011;56988;56.122;13.798;2024-03-08T02:19:13;7.40;;;3.90;;
69719;SDS011;56988;56.122;13.798;2024-03-08T02:20:13;6.38;;;3.83;;
69719;SDS011;56988;56.122;13.798;2024-03-08T02:21:13;8.45;;;3.92;;
69719;SDS011;56988;56.122;13.798;2024-03-08T02:22:18;8.70;;;4.43;;
69719;SDS011;56988;56.122;13.798;2024-03-08T02:23:19;7.07;;;4.35;;
69719;SDS011;56988;56.122;13.798;2024-03-08T02:24:19;8.18;;;4.07;;
69719;SDS011;56988;56.122;13.798;2024-03-08T02:25:20;9.15;;;4.57;;
69719;SDS011;56988;56.122;13.798;2024-03-08T02:26:20;7.60;;;4.20;;
69719;SDS011;56988;56.122;13.798;2024-03-08T02:27:24;6.47;;;3.90;;
69719;SDS011;56988;56.122;13.798;2024-03-08T02:28:25;8.48;;;4.00;;
69719;SDS011;56988;56.122;13.798;2024-03-08T02:29:25;9.48;;;4.53;;
69719;SDS011;56988;56.122;13.798;2024-03-08T02:30:25;9.45;;;4.18;;
69719;SDS011;56988;56.122;13.798;2024-03-08T02:31:29;8.27;;;4.45;;
69719;SDS011;56988;56.122;13.798;2024-03-08T02:32:29;8.25;;;3.58;;
69719;SDS011;56988;56.122;13.798;2024-03-08T02:33:32;8.13;;;4.15;;
69719;SDS011;56988;56.122;13.798;2024-03-08T02:34:32;6.35;;;3.75;;
69719;SDS011;56988;56.122;13.798;2024-03-08T02:35:33;7.53;;;4.20;;
69719;SDS011;56988;56.122;13.798;2024-03-08T02:36:33;9.65;;;4.75;;
69719;SDS011;56988;56.122;13.798;2024-03-08T02:37:35;10.35;;;4.85;;
69719;SDS011;56988;56.122;13.798;2024-03-08T02:38:35;7.65;;;3.72;;
69719;SDS011;56988;56.122;13.798;2024-03-08T02:39:35;12.27;;;4.30;;
69719;SDS011;56988;56.122;13.798;2024-03-08T02:41:36;9.73;;;4.30;;
69719;SDS011;56988;56.122;13.798;2024-03-08T02:42:36;8.15;;;4.30;;
69719;SDS011;56988;56.122;13.798;2024-03-08T02:44:37;11.80;;;4.65;;
69719;SDS011;56988;56.122;13.798;2024-03-08T02:45:37;8.93;;;4.47;;
69719;SDS011;56988;56.122;13.798;2024-03-08T02:46:37;9.00;;;4.68;;
69719;SDS011;56988;56.122;13.798;2024-03-08T02:47:37;8.48;;;4.70;;
69719;SDS011;56988;56.122;13.798;2024-03-08T02:48:38;8.73;;;4.65;;
69719;SDS011;56988;56.122;13.798;2024-03-08T02:49:39;8.07;;;4.15;;
69719;SDS011;56988;56.122;13.798;2024-03-08T02:50:40;10.23;;;4.80;;
69719;SDS011;56988;56.122;13.798;2024-03-08T02:51:40;8.00;;;4.68;;
69719;SDS011;56988;56.122;13.798;2024-03-08T02:52:40;9.15;;;4.43;;
69719;SDS011;56988;56.122;13.798;2024-03-08T02:53:41;7.45;;;4.07;;
69719;SDS011;56988;56.122;13.798;2024-03-08T02:54:43;8.43;;;4.47;;
69719;SDS011;56988;56.122;13.798;2024-03-08T02:55:43;8.60;;;4.55;;
69719;SDS011;56988;56.122;13.798;2024-03-08T02:56:44;8.10;;;4.38;;
69719;SDS011;56988;56.122;13.798;2024-03-08T02:57:44;9.57;;;4.43;;
69719;SDS011;56988;56.122;13.798;2024-03-08T02:58:47;10.52;;;4.78;;
69719;SDS011;56988;56.122;13.798;2024-03-08T02:59:48;7.10;;;3.97;;
69719;SDS011;56988;56.122;13.798;2024-03-08T03:00:49;7.18;;;4.32;;
69719;SDS011;56988;56.122;13.798;2024-03-08T03:01:50;7.53;;;4.13;;
69719;SDS011;56988;56.122;13.798;2024-03-08T03:02:50;6.60;;;3.75;;
69719;SDS011;56988;56.122;13.798;2024-03-08T03:03:53;8.82;;;4.43;;
69719;SDS011;56988;56.122;13.798;2024-03-08T03:04:54;9.07;;;4.40;;
69719;SDS011;56988;56.122;13.798;2024-03-08T03:05:55;9.43;;;4.35;;
69719;SDS011;56988;56.122;13.798;2024-03-08T03:06:56;7.78;;;4.22;;
69719;SDS011;56988;56.122;13.798;2024-03-08T03:07:56;7.45;;;4.50;;
69719;SDS011;56988;56.122;13.798;2024-03-08T03:08:58;7.68;;;4.00;;
69719;SDS011;56988;56.122;13.798;2024-03-08T03:09:58;11.68;;;4.40;;
69719;SDS011;56988;56.122;13.798;2024-03-08T03:10:59;7.55;;;4.30;;
69719;SDS011;56988;56.122;13.798;2024-03-08T03:11:59;8.48;;;3.85;;
69719;SDS011;56988;56.122;13.798;2024-03-08T03:13:00;8.45;;;4.53;;
69719;SDS011;56988;56.122;13.798;2024-03-08T03:14:00;9.95;;;4.10;;
69719;SDS011;56988;56.122;13.798;2024-03-08T03:15:00;11.73;;;5.00;;
69719;SDS011;56988;56.122;13.798;2024-03-08T03:16:01;9.48;;;4.60;;
69719;SDS011;56988;56.122;13.798;2024-03-08T03:17:03;10.15;;;5.15;;
69719;SDS011;56988;56.122;13.798;2024-03-08T03:19:07;11.20;;;4.00;;
69719;SDS011;56988;56.122;13.798;2024-03-08T03:20:08;9.18;;;4.88;;
69719;SDS011;56988;56.122;13.798;2024-03-08T03:21:13;7.78;;;4.88;;
69719;SDS011;56988;56.122;13.798;2024-03-08T03:22:13;9.13;;;4.45;;
69719;SDS011;56988;56.122;13.798;2024-03-08T03:23:15;7.78;;;4.60;;
69719;SDS011;56988;56.122;13.798;2024-03-08T03:24:20;8.70;;;4.68;;
69719;SDS011;56988;56.122;13.798;2024-03-08T03:25:21;7.55;;;4.20;;
69719;SDS011;56988;56.122;13.798;2024-03-08T03:26:33;8.18;;;4.03;;
69719;SDS011;56988;56.122;13.798;2024-03-08T03:27:33;6.40;;;3.90;;
69719;SDS011;56988;56.122;13.798;2024-03-08T03:28:34;11.45;;;4.75;;
69719;SDS011;56988;56.122;13.798;2024-03-08T03:29:34;11.83;;;4.50;;
69719;SDS011;56988;56.122;13.798;2024-03-08T03:30:34;8.60;;;4.32;;
69719;SDS011;56988;56.122;13.798;2024-03-08T03:32:36;9.38;;;4.43;;
69719;SDS011;56988;56.122;13.798;2024-03-08T03:33:46;9.15;;;4.38;;
69719;SDS011;56988;56.122;13.798;2024-03-08T03:34:47;9.27;;;4.67;;
69719;SDS011;56988;56.122;13.798;2024-03-08T03:35:47;10.20;;;4.83;;
69719;SDS011;56988;56.122;13.798;2024-03-08T03:36:47;7.40;;;4.53;;
69719;SDS011;56988;56.122;13.798;2024-03-08T03:37:48;7.20;;;3.95;;
69719;SDS011;56988;56.122;13.798;2024-03-08T03:39:02;11.65;;;4.20;;
69719;SDS011;56988;56.122;13.798;2024-03-08T03:40:22;7.43;;;4.35;;
69719;SDS011;56988;56.122;13.798;2024-03-08T03:41:25;7.78;;;4.32;;
69719;SDS011;56988;56.122;13.798;2024-03-08T03:42:25;10.85;;;4.00;;
69719;SDS011;56988;56.122;13.798;2024-03-08T03:44:26;4.47;;;2.77;;
69719;SDS011;56988;56.122;13.798;2024-03-08T03:45:27;8.43;;;3.80;;
69719;SDS011;56988;56.122;13.798;2024-03-08T03:46:27;8.40;;;4.05;;
69719;SDS011;56988;56.122;13.798;2024-03-08T03:47:27;9.18;;;4.22;;
69719;SDS011;56988;56.122;13.798;2024-03-08T03:48:27;11.65;;;4.35;;
69719;SDS011;56988;56.122;13.798;2024-03-08T03:49:28;7.38;;;4.60;;
69719;SDS011;56988;56.122;13.798;2024-03-08T03:50:29;11.65;;;4.35;;
69719;SDS011;56988;56.122;13.798;2024-03-08T03:51:29;9.52;;;4.30;;
69719;SDS011;56988;56.122;13.798;2024-03-08T03:52:30;7.50;;;4.60;;
69719;SDS011;56988;56.122;13.798;2024-03-08T03:54:30;6.22;;;3.65;;
69719;SDS011;56988;56.122;13.798;2024-03-08T03:55:31;9.00;;;4.50;;
69719;SDS011;56988;56.122;13.798;2024-03-08T03:56:32;7.00;;;3.78;;
69719;SDS011;56988;56.122;13.798;2024-03-08T03:57:32;9.15;;;4.47;;
69719;SDS011;56988;56.122;13.798;2024-03-08T03:59:33;9.10;;;3.80;;
69719;SDS011;56988;56.122;13.798;2024-03-08T04:00:33;7.55;;;4.10;;
69719;SDS011;56988;56.122;13.798;2024-03-08T04:01:34;6.22;;;3.70;;
69719;SDS011;56988;56.122;13.798;2024-03-08T04:02:34;6.28;;;3.35;;
69719;SDS011;56988;56.122;13.798;2024-03-08T04:03:34;10.70;;;4.18;;
69719;SDS011;56988;56.122;13.798;2024-03-08T04:04:35;9.52;;;4.35;;
69719;SDS011;56988;56.122;13.798;2024-03-08T04:05:35;8.55;;;4.72;;
69719;SDS011;56988;56.122;13.798;2024-03-08T04:06:35;7.05;;;4.25;;
69719;SDS011;56988;56.122;13.798;2024-03-08T04:07:36;9.32;;;4.68;;
69719;SDS011;56988;56.122;13.798;2024-03-08T04:08:37;11.23;;;4.55;;
69719;SDS011;56988;56.122;13.798;2024-03-08T04:09:37;9.32;;;4.60;;
69719;SDS011;56988;56.122;13.798;2024-03-08T04:10:37;8.35;;;4.10;;
69719;SDS011;56988;56.122;13.798;2024-03-08T04:11:38;7.13;;;4.22;;
69719;SDS011;56988;56.122;13.798;2024-03-08T04:12:38;7.28;;;4.22;;
69719;SDS011;56988;56.122;13.798;2024-03-08T04:13:38;11.37;;;4.67;;
69719;SDS011;56988;56.122;13.798;2024-03-08T04:14:41;8.30;;;4.00;;
69719;SDS011;56988;56.122;13.798;2024-03-08T04:15:42;10.07;;;4.70;;
69719;SDS011;56988;56.122;13.798;2024-03-08T04:16:45;10.60;;;4.80;;
69719;SDS011;56988;56.122;13.798;2024-03-08T04:18:46;6.83;;;3.37;;
69719;SDS011;56988;56.122;13.798;2024-03-08T04:19:47;10.25;;;4.45;;
69719;SDS011;56988;56.122;13.798;2024-03-08T04:20:48;7.65;;;3.95;;
69719;SDS011;56988;56.122;13.798;2024-03-08T04:21:48;11.05;;;4.22;;
69719;SDS011;56988;56.122;13.798;2024-03-08T04:22:49;9.27;;;4.57;;
69719;SDS011;56988;56.122;13.798;2024-03-08T04:23:49;7.07;;;4.17;;
69719;SDS011;56988;56.122;13.798;2024-03-08T04:24:49;9.18;;;4.22;;
69719;SDS011;56988;56.122;13.798;2024-03-08T04:25:49;9.98;;;4.43;;
69719;SDS011;56988;56.122;13.798;2024-03-08T04:26:50;6.63;;;4.18;;
69719;SDS011;56988;56.122;13.798;2024-03-08T04:28:52;8.60;;;3.67;;
69719;SDS011;56988;56.122;13.798;2024-03-08T04:30:52;7.00;;;4.00;;
69719;SDS011;56988;56.122;13.798;2024-03-08T04:31:53;7.97;;;4.10;;
69719;SDS011;56988;56.122;13.798;2024-03-08T04:32:56;8.77;;;4.03;;
69719;SDS011;56988;56.122;13.798;2024-03-08T04:33:57;8.63;;;4.03;;
69719;SDS011;56988;56.122;13.798;2024-03-08T04:34:57;11.30;;;4.23;;
69719;SDS011;56988;56.122;13.798;2024-03-08T04:35:57;6.07;;;3.90;;
69719;SDS011;56988;56.122;13.798;2024-03-08T04:36:58;7.07;;;3.85;;
69719;SDS011;56988;56.122;13.798;2024-03-08T04:37:58;8.65;;;4.40;;
69719;SDS011;56988;56.122;13.798;2024-03-08T04:38:59;7.80;;;4.50;;
69719;SDS011;56988;56.122;13.798;2024-03-08T04:39:59;8.30;;;4.15;;
69719;SDS011;56988;56.122;13.798;2024-03-08T04:41:00;9.70;;;4.47;;
69719;SDS011;56988;56.122;13.798;2024-03-08T04:42:02;10.88;;;4.43;;
69719;SDS011;56988;56.122;13.798;2024-03-08T04:43:09;9.88;;;4.72;;
69719;SDS011;56988;56.122;13.798;2024-03-08T04:44:11;11.75;;;4.85;;
69719;SDS011;56988;56.122;13.798;2024-03-08T04:45:12;8.93;;;4.18;;
69719;SDS011;56988;56.122;13.798;2024-03-08T04:46:13;8.38;;;4.82;;
69719;SDS011;56988;56.122;13.798;2024-03-08T04:47:14;12.07;;;5.15;;
69719;SDS011;56988;56.122;13.798;2024-03-08T04:48:14;10.32;;;4.72;;
69719;SDS011;56988;56.122;13.798;2024-03-08T04:50:15;8.27;;;4.23;;
69719;SDS011;56988;56.122;13.798;2024-03-08T04:52:15;12.57;;;4.50;;
69719;SDS011;56988;56.122;13.798;2024-03-08T04:53:16;8.00;;;4.47;;
69719;SDS011;56988;56.122;13.798;2024-03-08T04:54:17;11.60;;;4.72;;
69719;SDS011;56988;56.122;13.798;2024-03-08T04:55:18;8.50;;;4.47;;
69719;SDS011;56988;56.122;13.798;2024-03-08T04:56:21;7.97;;;4.28;;
69719;SDS011;56988;56.122;13.798;2024-03-08T04:57:21;8.35;;;4.45;;
69719;SDS011;56988;56.122;13.798;2024-03-08T04:58:21;8.52;;;4.03;;
69719;SDS011;56988;56.122;13.798;2024-03-08T04:59:21;7.43;;;3.88;;
69719;SDS011;56988;56.122;13.798;2024-03-08T05:00:22;7.30;;;4.55;;
69719;SDS011;56988;56.122;13.798;2024-03-08T05:01:22;8.57;;;3.97;;
69719;SDS011;56988;56.122;13.798;2024-03-08T05:02:22;7.10;;;4.32;;
69719;SDS011;56988;56.122;13.798;2024-03-08T05:04:26;10.30;;;4.13;;
69719;SDS011;56988;56.122;13.798;2024-03-08T05:05:27;10.00;;;4.68;;
69719;SDS011;56988;56.122;13.798;2024-03-08T05:06:29;7.00;;;3.92;;
69719;SDS011;56988;56.122;13.798;2024-03-08T05:07:30;8.93;;;4.80;;
69719;SDS011;56988;56.122;13.798;2024-03-08T05:08:30;9.10;;;4.72;;
69719;SDS011;56988;56.122;13.798;2024-03-08T05:09:30;9.48;;;4.60;;
69719;SDS011;56988;56.122;13.798;2024-03-08T05:10:31;8.23;;;4.80;;
69719;SDS011;56988;56.122;13.798;2024-03-08T05:11:32;7.03;;;4.60;;
69719;SDS011;56988;56.122;13.798;2024-03-08T05:12:33;10.75;;;4.82;;
69719;SDS011;56988;56.122;13.798;2024-03-08T05:13:33;11.48;;;4.85;;
69719;SDS011;56988;56.122;13.798;2024-03-08T05:14:34;10.15;;;4.50;;
69719;SDS011;56988;56.122;13.798;2024-03-08T05:15:35;7.68;;;4.20;;
69719;SDS011;56988;56.122;13.798;2024-03-08T05:16:35;9.15;;;5.07;;
69719;SDS011;56988;56.122;13.798;2024-03-08T05:17:36;7.72;;;4.30;;
69719;SDS011;56988;56.122;13.798;2024-03-08T05:18:36;9.57;;;5.15;;
69719;SDS011;56988;56.122;13.798;2024-03-08T05:19:36;9.35;;;4.97;;
69719;SDS011;56988;56.122;13.798;2024-03-08T05:21:37;7.85;;;4.85;;
69719;SDS011;56988;56.122;13.798;2024-03-08T05:22:37;8.02;;;4.75;;
69719;SDS011;56988;56.122;13.798;2024-03-08T05:23:37;7.63;;;4.60;;
69719;SDS011;56988;56.122;13.798;2024-03-08T05:24:38;8.98;;;4.82;;
69719;SDS011;56988;56.122;13.798;2024-03-08T05:25:39;9.15;;;4.72;;
69719;SDS011;56988;56.122;13.798;2024-03-08T05:26:39;8.40;;;5.20;;
69719;SDS011;56988;56.122;13.798;2024-03-08T05:27:39;10.65;;;5.03;;
69719;SDS011;56988;56.122;13.798;2024-03-08T05:29:40;7.87;;;5.03;;
69719;SDS011;56988;56.122;13.798;2024-03-08T05:30:40;7.38;;;5.15;;
69719;SDS011;56988;56.122;13.798;2024-03-08T05:31:48;7.28;;;4.93;;
69719;SDS011;56988;56.122;13.798;2024-03-08T05:32:48;8.48;;;4.68;;
69719;SDS011;56988;56.122;13.798;2024-03-08T05:33:49;5.93;;;4.07;;
69719;SDS011;56988;56.122;13.798;2024-03-08T05:34:49;8.38;;;5.03;;
69719;SDS011;56988;56.122;13.798;2024-03-08T05:35:49;7.78;;;4.88;;
69719;SDS011;56988;56.122;13.798;2024-03-08T05:36:49;8.82;;;4.85;;
69719;SDS011;56988;56.122;13.798;2024-03-08T05:38:50;7.70;;;4.73;;
69719;SDS011;56988;56.122;13.798;2024-03-08T05:39:50;8.40;;;4.70;;
69719;SDS011;56988;56.122;13.798;2024-03-08T05:40:51;8.18;;;4.32;;
69719;SDS011;56988;56.122;13.798;2024-03-08T05:41:51;7.68;;;5.13;;
69719;SDS011;56988;56.122;13.798;2024-03-08T05:42:51;8.88;;;5.40;;
69719;SDS011;56988;56.122;13.798;2024-03-08T05:43:52;8.20;;;4.90;;
69719;SDS011;56988;56.122;13.798;2024-03-08T05:45:53;6.65;;;4.53;;
69719;SDS011;56988;56.122;13.798;2024-03-08T05:46:53;7.88;;;5.13;;
69719;SDS011;56988;56.122;13.798;2024-03-08T05:47:53;9.82;;;4.95;;
69719;SDS011;56988;56.122;13.798;2024-03-08T05:48:53;9.23;;;5.57;;
69719;SDS011;56988;56.122;13.798;2024-03-08T05:49:54;8.45;;;4.97;;
69719;SDS011;56988;56.122;13.798;2024-03-08T05:51:57;5.53;;;3.65;;
69719;SDS011;56988;56.122;13.798;2024-03-08T05:53:57;9.25;;;3.67;;
69719;SDS011;56988;56.122;13.798;2024-03-08T05:55:58;8.57;;;4.27;;
69719;SDS011;56988;56.122;13.798;2024-03-08T05:56:58;8.00;;;4.15;;
69719;SDS011;56988;56.122;13.798;2024-03-08T05:57:59;8.73;;;4.22;;
69719;SDS011;56988;56.122;13.798;2024-03-08T05:59:01;7.28;;;4.10;;
69719;SDS011;56988;56.122;13.798;2024-03-08T06:00:01;8.80;;;3.72;;
69719;SDS011;56988;56.122;13.798;2024-03-08T06:01:01;10.60;;;4.43;;
69719;SDS011;56988;56.122;13.798;2024-03-08T06:02:01;9.70;;;4.38;;
69719;SDS011;56988;56.122;13.798;2024-03-08T06:03:02;9.23;;;4.25;;
69719;SDS011;56988;56.122;13.798;2024-03-08T06:04:03;11.10;;;4.68;;
69719;SDS011;56988;56.122;13.798;2024-03-08T06:05:03;9.23;;;4.10;;
69719;SDS011;56988;56.122;13.798;2024-03-08T06:06:04;7.90;;;3.95;;
69719;SDS011;56988;56.122;13.798;2024-03-08T06:08:04;10.15;;;4.07;;
69719;SDS011;56988;56.122;13.798;2024-03-08T06:09:07;10.65;;;4.13;;
69719;SDS011;56988;56.122;13.798;2024-03-08T06:10:17;7.85;;;3.78;;
69719;SDS011;56988;56.122;13.798;2024-03-08T06:11:18;11.32;;;3.90;;
69719;SDS011;56988;56.122;13.798;2024-03-08T06:12:18;9.20;;;4.18;;
69719;SDS011;56988;56.122;13.798;2024-03-08T06:13:19;6.30;;;4.00;;
69719;SDS011;56988;56.122;13.798;2024-03-08T06:14:19;9.68;;;4.72;;
69719;SDS011;56988;56.122;13.798;2024-03-08T06:15:20;8.90;;;3.72;;
69719;SDS011;56988;56.122;13.798;2024-03-08T06:16:20;9.25;;;4.05;;
69719;SDS011;56988;56.122;13.798;2024-03-08T06:17:21;8.13;;;4.20;;
69719;SDS011;56988;56.122;13.798;2024-03-08T06:18:25;7.43;;;3.80;;
69719;SDS011;56988;56.122;13.798;2024-03-08T06:19:25;6.47;;;3.85;;
69719;SDS011;56988;56.122;13.798;2024-03-08T06:21:26;4.50;;;2.83;;
69719;SDS011;56988;56.122;13.798;2024-03-08T06:23:28;6.47;;;3.72;;
69719;SDS011;56988;56.122;13.798;2024-03-08T06:25:28;6.47;;;3.67;;
69719;SDS011;56988;56.122;13.798;2024-03-08T06:26:29;11.10;;;4.32;;
69719;SDS011;56988;56.122;13.798;2024-03-08T06:28:29;8.43;;;3.70;;
69719;SDS011;56988;56.122;13.798;2024-03-08T06:29:30;11.30;;;4.07;;
69719;SDS011;56988;56.122;13.798;2024-03-08T06:31:31;6.65;;;3.50;;
69719;SDS011;56988;56.122;13.798;2024-03-08T06:32:31;6.57;;;3.78;;